Emu Arrow — C6OR4 — position and weather

sailwx.info

Track history (hours):
 
Tides and Currents Weather Stations Pressure Air Temp Water Temp Dewpoint Dewpoint Depression Visibility Wind Speed Wind Dir Waves Ship Positions

Emu Arrow

Last reported at 2014-Aug-31 21:33 UTC. Time now 2014-Sep-01 11:31 UTC.
Position N 22°21' E 120°13'.

Length 200 m; draft 9.3 m.

Type: Cargo ship. MMSI: 309805000.

Date/timePositionNaut miles runAvg speedWind from/ knotsBaromVisibWave heightAir tempDewpointWater temp
2014-Aug-31 21:33N 22°21' E 120°13'1111.4
2014-Aug-31 20:33N 22°32' E 120°12'6 5.8
2014-Aug-31 19:33N 22°34' E 120°18'0 0.2
2014-Aug-31 18:32N 22°34' E 120°18'0 0.0
2014-Aug-31 17:32N 22°34' E 120°18'0 0.0
2014-Aug-31 16:32N 22°34' E 120°18'0 0.0
2014-Aug-31 15:32N 22°34' E 120°18'0 0.0
2014-Aug-31 14:23N 22°34' E 120°18'0 0.0
2014-Aug-31 13:29N 22°34' E 120°18'0 0.0
2014-Aug-31 12:29N 22°34' E 120°18'0 0.0
2014-Aug-31 11:29N 22°34' E 120°18'0 0.0
2014-Aug-31 10:29N 22°34' E 120°18'0 0.0
2014-Aug-31 09:29N 22°34' E 120°18'0 0.0
2014-Aug-31 08:29N 22°34' E 120°18'0 0.0
2014-Aug-31 07:29N 22°34' E 120°18'0 0.0
2014-Aug-31 06:29N 22°34' E 120°18'0 0.0
2014-Aug-31 05:32N 22°34' E 120°18'0 0.0
2014-Aug-31 04:32N 22°34' E 120°18'0 0.0
2014-Aug-31 03:32N 22°34' E 120°18'0 0.0
2014-Aug-31 02:32N 22°34' E 120°18'0 0.0
2014-Aug-31 01:26N 22°34' E 120°18'0 0.0
2014-Aug-31 00:32N 22°34' E 120°18'0 0.0
2014-Aug-30 22:26N 22°34' E 120°18'0 0.0
2014-Aug-30 20:26N 22°34' E 120°18'0 0.0
2014-Aug-30 19:20N 22°34' E 120°18'0 0.0
2014-Aug-30 18:32N 22°34' E 120°18'0 0.0
2014-Aug-30 17:32N 22°34' E 120°18'0 0.0
2014-Aug-30 16:32N 22°34' E 120°18'0 0.0
2014-Aug-30 15:32N 22°34' E 120°18'0 0.0
2014-Aug-30 14:32N 22°34' E 120°18'0 0.0
2014-Aug-30 13:32N 22°34' E 120°18'0 0.0
2014-Aug-30 12:32N 22°34' E 120°18'0 0.0
2014-Aug-30 11:32N 22°34' E 120°18'0 0.0
2014-Aug-30 10:32N 22°34' E 120°18'0 0.0
2014-Aug-30 09:32N 22°34' E 120°18'0 0.0
2014-Aug-30 08:32N 22°34' E 120°18'0 0.0
2014-Aug-30 07:32N 22°34' E 120°18'0 0.0
2014-Aug-30 06:32N 22°34' E 120°18'0 0.0
2014-Aug-30 05:32N 22°34' E 120°18'0 0.0
2014-Aug-30 04:32N 22°34' E 120°18'0 0.0
2014-Aug-30 03:32N 22°34' E 120°18'0 0.0
2014-Aug-30 02:32N 22°34' E 120°18'0 0.0
2014-Aug-30 01:26N 22°34' E 120°18'0 0.0
2014-Aug-30 00:32N 22°34' E 120°18'0 0.0
2014-Aug-29 20:26N 22°34' E 120°18'0 0.0
2014-Aug-29 19:32N 22°34' E 120°18'0 0.0
2014-Aug-29 18:32N 22°34' E 120°18'0 0.0
2014-Aug-29 17:32N 22°34' E 120°18'0 0.0
2014-Aug-29 16:32N 22°34' E 120°18'0 0.0
2014-Aug-29 15:32N 22°34' E 120°18'0 0.0
2014-Aug-29 14:32N 22°34' E 120°18'0 0.0
2014-Aug-29 13:32N 22°34' E 120°18'0 0.0
2014-Aug-29 12:32N 22°34' E 120°18'0 0.0
2014-Aug-29 11:32N 22°34' E 120°18'0 0.0
2014-Aug-29 10:32N 22°34' E 120°18'0 0.0
2014-Aug-29 09:32N 22°34' E 120°18'0 0.0
2014-Aug-29 08:32N 22°34' E 120°18'0 0.0
2014-Aug-29 07:32N 22°34' E 120°18'0 0.0
2014-Aug-29 06:32N 22°34' E 120°18'0 0.0
2014-Aug-29 05:32N 22°34' E 120°18'0 0.0
2014-Aug-29 04:32N 22°34' E 120°18'0 0.0
2014-Aug-29 03:32N 22°34' E 120°18'0 0.0
2014-Aug-29 02:32N 22°34' E 120°18'0 0.0
2014-Aug-29 01:29N 22°34' E 120°18'0 0.0
2014-Aug-29 00:29N 22°34' E 120°18'0 0.0
2014-Aug-28 22:29N 22°34' E 120°18'0 0.0
2014-Aug-28 21:26N 22°34' E 120°18'0 0.0
2014-Aug-28 20:26N 22°34' E 120°18'0 0.0
2014-Aug-28 19:32N 22°34' E 120°18'0 0.0
2014-Aug-28 18:32N 22°34' E 120°18'0 0.0
2014-Aug-28 17:32N 22°34' E 120°18'0 0.0
2014-Aug-28 16:32N 22°34' E 120°18'0 0.0
2014-Aug-28 15:32N 22°34' E 120°18'0 0.0
2014-Aug-28 14:32N 22°34' E 120°18'0 0.0
2014-Aug-28 13:33N 22°34' E 120°18'3 3.2
2014-Aug-28 12:33N 22°32' E 120°16'5 5.5
2014-Aug-28 11:33N 22°28' E 120°12'1 0.7
2014-Aug-28 10:33N 22°28' E 120°12'1 1.3
2014-Aug-28 09:33N 22°29' E 120°11'2 1.5
2014-Aug-28 08:31N 22°30' E 120°10'1 0.7
2014-Aug-28 07:33N 22°31' E 120°09'3 2.6
2014-Aug-28 06:33N 22°33' E 120°07'3 3.2
2014-Aug-28 05:33N 22°33' E 120°04'5 5.2
2014-Aug-28 04:33N 22°35' E 119°58'9 8.6
2014-Aug-28 03:33N 22°43' E 119°58'1110.3
2014-Aug-28 02:30N 22°54' E 119°56'38210.9
2014-Aug-26 15:23N 28°45' E 122°44'1110.7
2014-Aug-26 14:23N 28°54' E 122°50'910.8
2014-Aug-26 13:33N 29°02' E 122°54'1211.8
2014-Aug-26 12:32N 29°12' E 123°03'1212.1
2014-Aug-26 11:33N 29°21' E 123°11'1110.9
2014-Aug-26 10:32N 29°31' E 123°15'1212.0
2014-Aug-26 09:33N 29°42' E 123°22'1312.7
2014-Aug-26 08:33N 29°53' E 123°29'1413.2
2014-Aug-26 07:27N 30°06' E 123°37'5012.3
2014-Aug-26 03:22N 30°54' E 123°53'  
Track history (hours):
 
Tides and Currents Weather Stations Pressure Air Temp Water Temp Dewpoint Dewpoint Depression Visibility Wind Speed Wind Dir Waves Ship Positions

Emu Arrow

Last reported at 2014-Aug-31 21:33 UTC. Time now 2014-Sep-01 11:31 UTC.
Position N 22°21' E 120°13'.

Length 200 m; draft 9.3 m.

Type: Cargo ship. MMSI: 309805000.

Date/timePositionNaut miles runAvg speedWind from/ knotsBaromVisibWave heightAir tempDewpointWater temp
2014-Aug-31 21:33N 22°21' E 120°13'1111.4
2014-Aug-31 20:33N 22°32' E 120°12'6 5.8
2014-Aug-31 19:33N 22°34' E 120°18'0 0.2
2014-Aug-31 18:32N 22°34' E 120°18'0 0.0
2014-Aug-31 17:32N 22°34' E 120°18'0 0.0
2014-Aug-31 16:32N 22°34' E 120°18'0 0.0
2014-Aug-31 15:32N 22°34' E 120°18'0 0.0
2014-Aug-31 14:23N 22°34' E 120°18'0 0.0
2014-Aug-31 13:29N 22°34' E 120°18'0 0.0
2014-Aug-31 12:29N 22°34' E 120°18'0 0.0
2014-Aug-31 11:29N 22°34' E 120°18'0 0.0
2014-Aug-31 10:29N 22°34' E 120°18'0 0.0
2014-Aug-31 09:29N 22°34' E 120°18'0 0.0
2014-Aug-31 08:29N 22°34' E 120°18'0 0.0
2014-Aug-31 07:29N 22°34' E 120°18'0 0.0
2014-Aug-31 06:29N 22°34' E 120°18'0 0.0
2014-Aug-31 05:32N 22°34' E 120°18'0 0.0
2014-Aug-31 04:32N 22°34' E 120°18'0 0.0
2014-Aug-31 03:32N 22°34' E 120°18'0 0.0
2014-Aug-31 02:32N 22°34' E 120°18'0 0.0
2014-Aug-31 01:26N 22°34' E 120°18'0 0.0
2014-Aug-31 00:32N 22°34' E 120°18'0 0.0
2014-Aug-30 22:26N 22°34' E 120°18'0 0.0
2014-Aug-30 20:26N 22°34' E 120°18'0 0.0
2014-Aug-30 19:20N 22°34' E 120°18'0 0.0
2014-Aug-30 18:32N 22°34' E 120°18'0 0.0
2014-Aug-30 17:32N 22°34' E 120°18'0 0.0
2014-Aug-30 16:32N 22°34' E 120°18'0 0.0
2014-Aug-30 15:32N 22°34' E 120°18'0 0.0
2014-Aug-30 14:32N 22°34' E 120°18'0 0.0
2014-Aug-30 13:32N 22°34' E 120°18'0 0.0
2014-Aug-30 12:32N 22°34' E 120°18'0 0.0
2014-Aug-30 11:32N 22°34' E 120°18'0 0.0
2014-Aug-30 10:32N 22°34' E 120°18'0 0.0
2014-Aug-30 09:32N 22°34' E 120°18'0 0.0
2014-Aug-30 08:32N 22°34' E 120°18'0 0.0
2014-Aug-30 07:32N 22°34' E 120°18'0 0.0
2014-Aug-30 06:32N 22°34' E 120°18'0 0.0
2014-Aug-30 05:32N 22°34' E 120°18'0 0.0
2014-Aug-30 04:32N 22°34' E 120°18'0 0.0
2014-Aug-30 03:32N 22°34' E 120°18'0 0.0
2014-Aug-30 02:32N 22°34' E 120°18'0 0.0
2014-Aug-30 01:26N 22°34' E 120°18'0 0.0
2014-Aug-30 00:32N 22°34' E 120°18'0 0.0
2014-Aug-29 20:26N 22°34' E 120°18'0 0.0
2014-Aug-29 19:32N 22°34' E 120°18'0 0.0
2014-Aug-29 18:32N 22°34' E 120°18'0 0.0
2014-Aug-29 17:32N 22°34' E 120°18'0 0.0
2014-Aug-29 16:32N 22°34' E 120°18'0 0.0
2014-Aug-29 15:32N 22°34' E 120°18'0 0.0
2014-Aug-29 14:32N 22°34' E 120°18'0 0.0
2014-Aug-29 13:32N 22°34' E 120°18'0 0.0
2014-Aug-29 12:32N 22°34' E 120°18'0 0.0
2014-Aug-29 11:32N 22°34' E 120°18'0 0.0
2014-Aug-29 10:32N 22°34' E 120°18'0 0.0
2014-Aug-29 09:32N 22°34' E 120°18'0 0.0
2014-Aug-29 08:32N 22°34' E 120°18'0 0.0
2014-Aug-29 07:32N 22°34' E 120°18'0 0.0
2014-Aug-29 06:32N 22°34' E 120°18'0 0.0
2014-Aug-29 05:32N 22°34' E 120°18'0 0.0
2014-Aug-29 04:32N 22°34' E 120°18'0 0.0
2014-Aug-29 03:32N 22°34' E 120°18'0 0.0
2014-Aug-29 02:32N 22°34' E 120°18'0 0.0
2014-Aug-29 01:29N 22°34' E 120°18'0 0.0
2014-Aug-29 00:29N 22°34' E 120°18'0 0.0
2014-Aug-28 22:29N 22°34' E 120°18'0 0.0
2014-Aug-28 21:26N 22°34' E 120°18'0 0.0
2014-Aug-28 20:26N 22°34' E 120°18'0 0.0
2014-Aug-28 19:32N 22°34' E 120°18'0 0.0
2014-Aug-28 18:32N 22°34' E 120°18'0 0.0
2014-Aug-28 17:32N 22°34' E 120°18'0 0.0
2014-Aug-28 16:32N 22°34' E 120°18'0 0.0
2014-Aug-28 15:32N 22°34' E 120°18'0 0.0
2014-Aug-28 14:32N 22°34' E 120°18'0 0.0
2014-Aug-28 13:33N 22°34' E 120°18'3 3.2
2014-Aug-28 12:33N 22°32' E 120°16'5 5.5
2014-Aug-28 11:33N 22°28' E 120°12'1 0.7
2014-Aug-28 10:33N 22°28' E 120°12'1 1.3
2014-Aug-28 09:33N 22°29' E 120°11'2 1.5
2014-Aug-28 08:31N 22°30' E 120°10'1 0.7
2014-Aug-28 07:33N 22°31' E 120°09'3 2.6
2014-Aug-28 06:33N 22°33' E 120°07'3 3.2
2014-Aug-28 05:33N 22°33' E 120°04'5 5.2
2014-Aug-28 04:33N 22°35' E 119°58'9 8.6
2014-Aug-28 03:33N 22°43' E 119°58'1110.3
2014-Aug-28 02:30N 22°54' E 119°56'38210.9
2014-Aug-26 15:23N 28°45' E 122°44'1110.7
2014-Aug-26 14:23N 28°54' E 122°50'910.8
2014-Aug-26 13:33N 29°02' E 122°54'1211.8
2014-Aug-26 12:32N 29°12' E 123°03'1212.1
2014-Aug-26 11:33N 29°21' E 123°11'1110.9
2014-Aug-26 10:32N 29°31' E 123°15'1212.0
2014-Aug-26 09:33N 29°42' E 123°22'1312.7
2014-Aug-26 08:33N 29°53' E 123°29'1413.2
2014-Aug-26 07:27N 30°06' E 123°37'5012.3
2014-Aug-26 03:22N 30°54' E 123°53'  

Dump ship's entire track history